sensor_id;sensor_type;location;lat;lon;timestamp;temperature;humidity
20815;DHT22;10568;48.176;16.316;2023-05-07T00:00:37;12.20;99.90
20815;DHT22;10568;48.176;16.316;2023-05-07T00:03:03;12.20;99.90
20815;DHT22;10568;48.176;16.316;2023-05-07T00:05:29;12.20;99.90
20815;DHT22;10568;48.176;16.316;2023-05-07T00:07:55;12.20;99.90
20815;DHT22;10568;48.176;16.316;2023-05-07T00:10:20;12.20;99.90
20815;DHT22;10568;48.176;16.316;2023-05-07T00:12:46;12.20;99.90
20815;DHT22;10568;48.176;16.316;2023-05-07T00:15:12;12.20;99.90
20815;DHT22;10568;48.176;16.316;2023-05-07T00:17:38;12.30;99.90
20815;DHT22;10568;48.176;16.316;2023-05-07T00:20:06;12.20;99.90
20815;DHT22;10568;48.176;16.316;2023-05-07T00:22:32;12.20;99.90
20815;DHT22;10568;48.176;16.316;2023-05-07T00:24:58;12.30;99.90
20815;DHT22;10568;48.176;16.316;2023-05-07T00:27:25;12.30;99.90
20815;DHT22;10568;48.176;16.316;2023-05-07T00:29:51;12.20;99.90
20815;DHT22;10568;48.176;16.316;2023-05-07T00:32:17;12.20;99.90
20815;DHT22;10568;48.176;16.316;2023-05-07T00:34:43;12.20;99.90
20815;DHT22;10568;48.176;16.316;2023-05-07T00:37:09;12.20;99.90
20815;DHT22;10568;48.176;16.316;2023-05-07T00:39:35;12.30;99.90
20815;DHT22;10568;48.176;16.316;2023-05-07T00:42:01;12.30;99.90
20815;DHT22;10568;48.176;16.316;2023-05-07T00:44:28;12.20;99.90
20815;DHT22;10568;48.176;16.316;2023-05-07T00:46:57;12.20;99.90
20815;DHT22;10568;48.176;16.316;2023-05-07T00:49:30;12.20;99.90
20815;DHT22;10568;48.176;16.316;2023-05-07T00:51:58;12.10;99.90
20815;DHT22;10568;48.176;16.316;2023-05-07T00:54:26;12.10;99.90
20815;DHT22;10568;48.176;16.316;2023-05-07T00:56:58;12.10;99.90
20815;DHT22;10568;48.176;16.316;2023-05-07T00:59:24;12.10;99.90
20815;DHT22;10568;48.176;16.316;2023-05-07T01:01:49;12.00;99.90
20815;DHT22;10568;48.176;16.316;2023-05-07T01:04:15;12.10;99.90
20815;DHT22;10568;48.176;16.316;2023-05-07T01:06:41;12.00;99.90
20815;DHT22;10568;48.176;16.316;2023-05-07T01:09:07;12.00;99.90
20815;DHT22;10568;48.176;16.316;2023-05-07T01:11:34;12.00;99.90
20815;DHT22;10568;48.176;16.316;2023-05-07T01:14:00;12.00;99.90
20815;DHT22;10568;48.176;16.316;2023-05-07T01:16:26;12.00;99.90
20815;DHT22;10568;48.176;16.316;2023-05-07T01:18:53;11.90;99.90
20815;DHT22;10568;48.176;16.316;2023-05-07T01:21:24;11.90;99.90
20815;DHT22;10568;48.176;16.316;2023-05-07T01:23:52;12.00;99.90
20815;DHT22;10568;48.176;16.316;2023-05-07T01:26:18;11.90;99.90
20815;DHT22;10568;48.176;16.316;2023-05-07T01:28:45;11.90;99.90
20815;DHT22;10568;48.176;16.316;2023-05-07T01:31:12;11.90;99.90
20815;DHT22;10568;48.176;16.316;2023-05-07T01:33:40;11.80;99.90
20815;DHT22;10568;48.176;16.316;2023-05-07T01:36:07;11.80;99.90
20815;DHT22;10568;48.176;16.316;2023-05-07T01:38:35;11.80;99.90
20815;DHT22;10568;48.176;16.316;2023-05-07T01:41:02;11.80;99.90
20815;DHT22;10568;48.176;16.316;2023-05-07T01:43:29;11.80;99.90
20815;DHT22;10568;48.176;16.316;2023-05-07T01:45:57;11.80;99.90
20815;DHT22;10568;48.176;16.316;2023-05-07T01:48:24;11.80;99.90
20815;DHT22;10568;48.176;16.316;2023-05-07T01:50:50;11.70;99.90
20815;DHT22;10568;48.176;16.316;2023-05-07T01:53:16;11.70;99.90
20815;DHT22;10568;48.176;16.316;2023-05-07T01:55:43;11.70;99.90
20815;DHT22;10568;48.176;16.316;2023-05-07T01:58:08;11.60;99.90
20815;DHT22;10568;48.176;16.316;2023-05-07T02:00:34;11.60;99.90
20815;DHT22;10568;48.176;16.316;2023-05-07T02:03:00;11.60;99.90
20815;DHT22;10568;48.176;16.316;2023-05-07T02:05:26;11.60;99.90
20815;DHT22;10568;48.176;16.316;2023-05-07T02:08:07;11.50;99.90
20815;DHT22;10568;48.176;16.316;2023-05-07T02:10:33;11.60;99.90
20815;DHT22;10568;48.176;16.316;2023-05-07T02:12:58;11.50;99.90
20815;DHT22;10568;48.176;16.316;2023-05-07T02:15:27;11.50;99.90
20815;DHT22;10568;48.176;16.316;2023-05-07T02:18:04;11.50;99.90
20815;DHT22;10568;48.176;16.316;2023-05-07T02:20:30;11.50;99.90
20815;DHT22;10568;48.176;16.316;2023-05-07T02:22:56;11.50;99.90
20815;DHT22;10568;48.176;16.316;2023-05-07T02:25:22;11.50;99.90
20815;DHT22;10568;48.176;16.316;2023-05-07T02:27:48;11.50;99.90
20815;DHT22;10568;48.176;16.316;2023-05-07T02:30:14;11.50;99.90
20815;DHT22;10568;48.176;16.316;2023-05-07T02:32:40;11.50;99.90
20815;DHT22;10568;48.176;16.316;2023-05-07T02:35:06;11.50;99.90
20815;DHT22;10568;48.176;16.316;2023-05-07T02:37:32;11.40;99.90
20815;DHT22;10568;48.176;16.316;2023-05-07T02:39:58;11.40;99.90
20815;DHT22;10568;48.176;16.316;2023-05-07T02:42:23;11.40;99.90
20815;DHT22;10568;48.176;16.316;2023-05-07T02:44:49;11.40;99.90
20815;DHT22;10568;48.176;16.316;2023-05-07T02:47:15;11.40;99.90
20815;DHT22;10568;48.176;16.316;2023-05-07T02:49:41;11.40;99.90
20815;DHT22;10568;48.176;16.316;2023-05-07T02:52:07;11.40;99.90
20815;DHT22;10568;48.176;16.316;2023-05-07T02:54:33;11.40;99.90
20815;DHT22;10568;48.176;16.316;2023-05-07T02:56:59;11.40;99.90
20815;DHT22;10568;48.176;16.316;2023-05-07T02:59:26;11.30;99.90
20815;DHT22;10568;48.176;16.316;2023-05-07T03:01:52;11.30;99.90
20815;DHT22;10568;48.176;16.316;2023-05-07T03:04:18;11.30;99.90
20815;DHT22;10568;48.176;16.316;2023-05-07T03:06:43;11.30;99.90
20815;DHT22;10568;48.176;16.316;2023-05-07T03:09:09;11.30;99.90
20815;DHT22;10568;48.176;16.316;2023-05-07T03:11:35;11.30;99.90
20815;DHT22;10568;48.176;16.316;2023-05-07T03:14:01;11.30;99.90
20815;DHT22;10568;48.176;16.316;2023-05-07T03:16:27;11.30;99.90
20815;DHT22;10568;48.176;16.316;2023-05-07T03:18:53;11.20;99.90
20815;DHT22;10568;48.176;16.316;2023-05-07T03:21:19;11.20;99.90
20815;DHT22;10568;48.176;16.316;2023-05-07T03:23:45;11.20;99.90
20815;DHT22;10568;48.176;16.316;2023-05-07T03:26:10;11.20;99.90
20815;DHT22;10568;48.176;16.316;2023-05-07T03:28:37;11.20;99.90
20815;DHT22;10568;48.176;16.316;2023-05-07T03:34:24;11.20;99.90
20815;DHT22;10568;48.176;16.316;2023-05-07T03:36:50;11.20;99.90
20815;DHT22;10568;48.176;16.316;2023-05-07T03:39:16;11.20;99.90
20815;DHT22;10568;48.176;16.316;2023-05-07T03:41:42;11.20;99.90
20815;DHT22;10568;48.176;16.316;2023-05-07T03:44:08;11.30;99.90
20815;DHT22;10568;48.176;16.316;2023-05-07T03:46:34;11.30;99.90
20815;DHT22;10568;48.176;16.316;2023-05-07T03:49:00;11.30;99.90
20815;DHT22;10568;48.176;16.316;2023-05-07T03:51:26;11.30;99.90
20815;DHT22;10568;48.176;16.316;2023-05-07T03:53:52;11.30;99.90
20815;DHT22;10568;48.176;16.316;2023-05-07T03:56:19;11.30;99.90
20815;DHT22;10568;48.176;16.316;2023-05-07T03:58:45;11.30;99.90
20815;DHT22;10568;48.176;16.316;2023-05-07T04:01:11;11.40;99.90
20815;DHT22;10568;48.176;16.316;2023-05-07T04:03:37;11.40;99.90
20815;DHT22;10568;48.176;16.316;2023-05-07T04:06:03;11.40;99.90
20815;DHT22;10568;48.176;16.316;2023-05-07T04:08:29;11.40;99.90
20815;DHT22;10568;48.176;16.316;2023-05-07T04:10:58;11.50;99.90
20815;DHT22;10568;48.176;16.316;2023-05-07T04:13:25;11.50;99.90
20815;DHT22;10568;48.176;16.316;2023-05-07T04:15:51;11.50;99.90
20815;DHT22;10568;48.176;16.316;2023-05-07T04:18:17;11.60;99.90
20815;DHT22;10568;48.176;16.316;2023-05-07T04:20:43;11.70;99.90
20815;DHT22;10568;48.176;16.316;2023-05-07T04:23:09;11.70;99.90
20815;DHT22;10568;48.176;16.316;2023-05-07T04:25:35;11.80;99.90
20815;DHT22;10568;48.176;16.316;2023-05-07T04:28:01;11.80;99.90
20815;DHT22;10568;48.176;16.316;2023-05-07T04:30:26;11.90;99.90
20815;DHT22;10568;48.176;16.316;2023-05-07T04:32:52;11.90;99.90
20815;DHT22;10568;48.176;16.316;2023-05-07T04:35:18;12.00;99.90
20815;DHT22;10568;48.176;16.316;2023-05-07T04:37:44;12.10;99.90
20815;DHT22;10568;48.176;16.316;2023-05-07T04:40:10;12.20;99.90
20815;DHT22;10568;48.176;16.316;2023-05-07T04:42:36;12.30;99.90
20815;DHT22;10568;48.176;16.316;2023-05-07T04:45:02;12.30;99.90
20815;DHT22;10568;48.176;16.316;2023-05-07T04:47:28;12.40;99.90
20815;DHT22;10568;48.176;16.316;2023-05-07T04:49:54;12.50;99.90
20815;DHT22;10568;48.176;16.316;2023-05-07T04:52:20;12.60;99.90
20815;DHT22;10568;48.176;16.316;2023-05-07T04:54:45;12.70;99.90
20815;DHT22;10568;48.176;16.316;2023-05-07T04:57:11;12.80;99.90
20815;DHT22;10568;48.176;16.316;2023-05-07T04:59:37;12.80;99.90
20815;DHT22;10568;48.176;16.316;2023-05-07T05:02:03;12.90;99.90
20815;DHT22;10568;48.176;16.316;2023-05-07T05:04:30;12.90;99.90
20815;DHT22;10568;48.176;16.316;2023-05-07T05:06:56;13.10;99.90
20815;DHT22;10568;48.176;16.316;2023-05-07T05:09:22;13.20;99.90
20815;DHT22;10568;48.176;16.316;2023-05-07T05:11:48;13.40;99.90
20815;DHT22;10568;48.176;16.316;2023-05-07T05:14:14;13.50;99.90
20815;DHT22;10568;48.176;16.316;2023-05-07T05:16:40;14.00;99.90
20815;DHT22;10568;48.176;16.316;2023-05-07T05:19:05;14.50;99.90
20815;DHT22;10568;48.176;16.316;2023-05-07T05:21:32;14.30;99.90
20815;DHT22;10568;48.176;16.316;2023-05-07T05:23:58;14.40;99.90
20815;DHT22;10568;48.176;16.316;2023-05-07T05:26:24;14.30;99.90
20815;DHT22;10568;48.176;16.316;2023-05-07T05:28:50;14.20;99.90
20815;DHT22;10568;48.176;16.316;2023-05-07T05:31:16;14.30;99.90
20815;DHT22;10568;48.176;16.316;2023-05-07T05:33:42;14.30;99.90
20815;DHT22;10568;48.176;16.316;2023-05-07T05:36:11;14.20;99.90
20815;DHT22;10568;48.176;16.316;2023-05-07T05:38:39;14.20;99.90
20815;DHT22;10568;48.176;16.316;2023-05-07T05:41:05;14.20;99.90
20815;DHT22;10568;48.176;16.316;2023-05-07T05:43:31;14.20;99.90
20815;DHT22;10568;48.176;16.316;2023-05-07T05:45:57;14.20;99.90
20815;DHT22;10568;48.176;16.316;2023-05-07T05:48:23;14.10;99.90
20815;DHT22;10568;48.176;16.316;2023-05-07T05:54:11;14.20;99.90
20815;DHT22;10568;48.176;16.316;2023-05-07T05:56:37;14.20;99.90
20815;DHT22;10568;48.176;16.316;2023-05-07T05:59:03;14.30;99.90
20815;DHT22;10568;48.176;16.316;2023-05-07T06:01:29;14.40;99.90
20815;DHT22;10568;48.176;16.316;2023-05-07T06:03:56;14.50;99.90
20815;DHT22;10568;48.176;16.316;2023-05-07T06:06:22;14.50;99.90
20815;DHT22;10568;48.176;16.316;2023-05-07T06:08:48;14.50;99.90
20815;DHT22;10568;48.176;16.316;2023-05-07T06:11:13;14.60;99.90
20815;DHT22;10568;48.176;16.316;2023-05-07T06:13:39;14.70;99.90
20815;DHT22;10568;48.176;16.316;2023-05-07T06:16:05;14.80;99.90
20815;DHT22;10568;48.176;16.316;2023-05-07T06:18:31;15.10;99.90
20815;DHT22;10568;48.176;16.316;2023-05-07T06:20:57;15.30;99.90
20815;DHT22;10568;48.176;16.316;2023-05-07T06:23:23;15.40;99.90
20815;DHT22;10568;48.176;16.316;2023-05-07T06:25:52;15.40;99.90
20815;DHT22;10568;48.176;16.316;2023-05-07T06:28:17;15.50;99.90
20815;DHT22;10568;48.176;16.316;2023-05-07T06:30:44;15.50;99.90
20815;DHT22;10568;48.176;16.316;2023-05-07T06:33:10;15.60;99.90
20815;DHT22;10568;48.176;16.316;2023-05-07T06:35:36;15.50;99.90
20815;DHT22;10568;48.176;16.316;2023-05-07T06:38:02;15.50;99.90
20815;DHT22;10568;48.176;16.316;2023-05-07T06:40:27;15.70;99.90
20815;DHT22;10568;48.176;16.316;2023-05-07T06:42:53;15.60;99.90
20815;DHT22;10568;48.176;16.316;2023-05-07T06:45:22;15.40;99.90
20815;DHT22;10568;48.176;16.316;2023-05-07T06:47:48;15.60;99.90
20815;DHT22;10568;48.176;16.316;2023-05-07T06:50:13;15.70;99.90
20815;DHT22;10568;48.176;16.316;2023-05-07T06:52:42;15.70;99.90
20815;DHT22;10568;48.176;16.316;2023-05-07T06:55:08;15.90;99.90
20815;DHT22;10568;48.176;16.316;2023-05-07T06:57:34;16.00;99.90
20815;DHT22;10568;48.176;16.316;2023-05-07T07:00:00;16.10;99.90
20815;DHT22;10568;48.176;16.316;2023-05-07T07:02:26;16.30;99.90
20815;DHT22;10568;48.176;16.316;2023-05-07T07:04:52;16.50;99.90
20815;DHT22;10568;48.176;16.316;2023-05-07T07:07:17;16.20;99.90
20815;DHT22;10568;48.176;16.316;2023-05-07T07:09:43;16.20;99.90
20815;DHT22;10568;48.176;16.316;2023-05-07T07:12:09;16.40;99.90
20815;DHT22;10568;48.176;16.316;2023-05-07T07:14:35;16.40;99.90
20815;DHT22;10568;48.176;16.316;2023-05-07T07:17:00;16.70;99.90
20815;DHT22;10568;48.176;16.316;2023-05-07T07:19:26;17.00;99.90
20815;DHT22;10568;48.176;16.316;2023-05-07T07:21:52;17.60;99.90
20815;DHT22;10568;48.176;16.316;2023-05-07T07:24:18;18.00;99.90
20815;DHT22;10568;48.176;16.316;2023-05-07T07:26:46;18.60;99.90
20815;DHT22;10568;48.176;16.316;2023-05-07T07:29:13;19.10;99.90
20815;DHT22;10568;48.176;16.316;2023-05-07T07:31:39;19.60;99.90
20815;DHT22;10568;48.176;16.316;2023-05-07T07:34:04;19.30;99.90
20815;DHT22;10568;48.176;16.316;2023-05-07T07:36:30;19.80;99.90
20815;DHT22;10568;48.176;16.316;2023-05-07T07:38:56;19.60;99.90
20815;DHT22;10568;48.176;16.316;2023-05-07T07:41:22;19.70;99.90
20815;DHT22;10568;48.176;16.316;2023-05-07T07:43:48;19.40;99.90
20815;DHT22;10568;48.176;16.316;2023-05-07T07:46:13;19.10;99.90
20815;DHT22;10568;48.176;16.316;2023-05-07T07:48:40;19.10;99.90
20815;DHT22;10568;48.176;16.316;2023-05-07T07:51:06;18.90;99.90
20815;DHT22;10568;48.176;16.316;2023-05-07T07:53:32;18.70;99.90
20815;DHT22;10568;48.176;16.316;2023-05-07T07:55:57;18.50;99.90
20815;DHT22;10568;48.176;16.316;2023-05-07T07:58:23;18.40;99.90
20815;DHT22;10568;48.176;16.316;2023-05-07T08:00:50;18.70;99.90
20815;DHT22;10568;48.176;16.316;2023-05-07T08:03:16;18.80;99.90
20815;DHT22;10568;48.176;16.316;2023-05-07T08:05:42;18.50;99.90
20815;DHT22;10568;48.176;16.316;2023-05-07T08:08:08;18.10;99.90
20815;DHT22;10568;48.176;16.316;2023-05-07T08:10:35;18.20;99.90
20815;DHT22;10568;48.176;16.316;2023-05-07T08:13:03;17.90;99.90
20815;DHT22;10568;48.176;16.316;2023-05-07T08:15:30;18.10;99.90
20815;DHT22;10568;48.176;16.316;2023-05-07T08:17:58;17.90;99.90
20815;DHT22;10568;48.176;16.316;2023-05-07T08:20:25;18.00;99.90
20815;DHT22;10568;48.176;16.316;2023-05-07T08:22:52;18.10;99.90
20815;DHT22;10568;48.176;16.316;2023-05-07T08:25:17;18.00;99.90
20815;DHT22;10568;48.176;16.316;2023-05-07T08:27:43;18.00;99.90
20815;DHT22;10568;48.176;16.316;2023-05-07T08:30:10;18.20;99.90
20815;DHT22;10568;48.176;16.316;2023-05-07T08:32:36;18.30;99.90
20815;DHT22;10568;48.176;16.316;2023-05-07T08:35:02;18.30;99.90
20815;DHT22;10568;48.176;16.316;2023-05-07T08:37:28;18.30;99.90
20815;DHT22;10568;48.176;16.316;2023-05-07T08:39:54;18.50;99.90
20815;DHT22;10568;48.176;16.316;2023-05-07T08:42:21;18.70;99.90
20815;DHT22;10568;48.176;16.316;2023-05-07T08:44:51;18.70;99.90
20815;DHT22;10568;48.176;16.316;2023-05-07T08:47:19;19.10;99.90
20815;DHT22;10568;48.176;16.316;2023-05-07T08:49:46;19.20;99.90
20815;DHT22;10568;48.176;16.316;2023-05-07T08:52:12;19.30;99.90
20815;DHT22;10568;48.176;16.316;2023-05-07T08:54:38;19.50;99.90
20815;DHT22;10568;48.176;16.316;2023-05-07T08:57:05;19.50;99.90
20815;DHT22;10568;48.176;16.316;2023-05-07T08:59:30;19.80;99.90
20815;DHT22;10568;48.176;16.316;2023-05-07T09:01:56;19.90;99.90
20815;DHT22;10568;48.176;16.316;2023-05-07T09:04:22;19.60;99.90
20815;DHT22;10568;48.176;16.316;2023-05-07T09:07:01;20.50;99.90
20815;DHT22;10568;48.176;16.316;2023-05-07T09:09:32;20.60;99.90
20815;DHT22;10568;48.176;16.316;2023-05-07T09:11:59;20.70;99.90
20815;DHT22;10568;48.176;16.316;2023-05-07T09:14:25;20.70;99.90
20815;DHT22;10568;48.176;16.316;2023-05-07T09:16:54;21.00;99.90
20815;DHT22;10568;48.176;16.316;2023-05-07T09:19:24;20.90;99.90
20815;DHT22;10568;48.176;16.316;2023-05-07T09:21:57;20.30;99.90
20815;DHT22;10568;48.176;16.316;2023-05-07T09:24:23;20.20;99.90
20815;DHT22;10568;48.176;16.316;2023-05-07T09:26:49;20.40;99.90
20815;DHT22;10568;48.176;16.316;2023-05-07T09:29:15;20.00;99.90
20815;DHT22;10568;48.176;16.316;2023-05-07T09:31:42;19.90;99.90
20815;DHT22;10568;48.176;16.316;2023-05-07T09:34:08;20.50;99.90
20815;DHT22;10568;48.176;16.316;2023-05-07T09:36:34;21.10;99.90
20815;DHT22;10568;48.176;16.316;2023-05-07T09:39:01;21.30;99.90
20815;DHT22;10568;48.176;16.316;2023-05-07T09:41:27;21.70;99.90
20815;DHT22;10568;48.176;16.316;2023-05-07T09:43:55;22.20;99.90
20815;DHT22;10568;48.176;16.316;2023-05-07T09:46:27;21.40;99.90
20815;DHT22;10568;48.176;16.316;2023-05-07T09:48:57;22.00;99.90
20815;DHT22;10568;48.176;16.316;2023-05-07T09:51:49;21.80;99.90
20815;DHT22;10568;48.176;16.316;2023-05-07T09:54:16;22.20;99.90
20815;DHT22;10568;48.176;16.316;2023-05-07T09:56:45;22.10;99.90
20815;DHT22;10568;48.176;16.316;2023-05-07T09:59:15;22.30;99.90
20815;DHT22;10568;48.176;16.316;2023-05-07T10:01:42;22.60;99.90
20815;DHT22;10568;48.176;16.316;2023-05-07T10:04:09;22.80;99.90
20815;DHT22;10568;48.176;16.316;2023-05-07T10:06:36;23.20;99.90
20815;DHT22;10568;48.176;16.316;2023-05-07T10:09:03;23.30;99.90
20815;DHT22;10568;48.176;16.316;2023-05-07T10:11:32;23.50;99.90
20815;DHT22;10568;48.176;16.316;2023-05-07T10:13:58;23.20;99.90
20815;DHT22;10568;48.176;16.316;2023-05-07T10:16:25;23.10;99.90
20815;DHT22;10568;48.176;16.316;2023-05-07T10:18:53;23.40;99.90
20815;DHT22;10568;48.176;16.316;2023-05-07T10:21:21;23.80;99.90
20815;DHT22;10568;48.176;16.316;2023-05-07T10:23:59;24.10;99.90
20815;DHT22;10568;48.176;16.316;2023-05-07T10:26:30;23.40;99.90
20815;DHT22;10568;48.176;16.316;2023-05-07T10:29:02;23.80;99.90
20815;DHT22;10568;48.176;16.316;2023-05-07T10:31:49;23.20;99.90
20815;DHT22;10568;48.176;16.316;2023-05-07T10:34:21;23.10;99.90
20815;DHT22;10568;48.176;16.316;2023-05-07T10:36:49;22.20;99.90
20815;DHT22;10568;48.176;16.316;2023-05-07T10:39:16;22.00;99.90
20815;DHT22;10568;48.176;16.316;2023-05-07T10:41:41;22.20;99.90
20815;DHT22;10568;48.176;16.316;2023-05-07T10:44:07;22.40;99.90
20815;DHT22;10568;48.176;16.316;2023-05-07T10:46:33;22.00;99.90
20815;DHT22;10568;48.176;16.316;2023-05-07T10:51:27;21.70;99.90
20815;DHT22;10568;48.176;16.316;2023-05-07T10:56:42;22.00;99.90
20815;DHT22;10568;48.176;16.316;2023-05-07T11:02:05;21.70;99.90
20815;DHT22;10568;48.176;16.316;2023-05-07T11:04:35;22.00;99.90
20815;DHT22;10568;48.176;16.316;2023-05-07T11:09:54;22.10;99.90
20815;DHT22;10568;48.176;16.316;2023-05-07T11:15:12;22.70;99.90
20815;DHT22;10568;48.176;16.316;2023-05-07T11:17:57;22.70;99.90
20815;DHT22;10568;48.176;16.316;2023-05-07T11:20:50;22.10;99.90
20815;DHT22;10568;48.176;16.316;2023-05-07T11:26:07;22.90;99.90
20815;DHT22;10568;48.176;16.316;2023-05-07T11:28:43;23.10;99.90
20815;DHT22;10568;48.176;16.316;2023-05-07T11:31:09;22.80;99.90
20815;DHT22;10568;48.176;16.316;2023-05-07T11:33:36;22.80;99.90
20815;DHT22;10568;48.176;16.316;2023-05-07T11:36:04;23.20;99.90
20815;DHT22;10568;48.176;16.316;2023-05-07T11:38:30;22.90;99.90
20815;DHT22;10568;48.176;16.316;2023-05-07T11:41:00;22.00;99.90
20815;DHT22;10568;48.176;16.316;2023-05-07T11:43:31;22.10;99.90
20815;DHT22;10568;48.176;16.316;2023-05-07T11:46:09;22.50;99.90
20815;DHT22;10568;48.176;16.316;2023-05-07T11:48:36;22.90;99.90
20815;DHT22;10568;48.176;16.316;2023-05-07T11:51:04;22.20;99.90
20815;DHT22;10568;48.176;16.316;2023-05-07T11:53:38;22.40;99.90
20815;DHT22;10568;48.176;16.316;2023-05-07T11:56:11;22.50;99.90
20815;DHT22;10568;48.176;16.316;2023-05-07T11:58:52;22.80;99.90
20815;DHT22;10568;48.176;16.316;2023-05-07T12:01:18;23.10;99.90
20815;DHT22;10568;48.176;16.316;2023-05-07T12:03:45;23.70;99.90
20815;DHT22;10568;48.176;16.316;2023-05-07T12:06:13;22.70;99.90
20815;DHT22;10568;48.176;16.316;2023-05-07T12:09:06;22.90;99.90
20815;DHT22;10568;48.176;16.316;2023-05-07T12:11:36;23.10;99.90
20815;DHT22;10568;48.176;16.316;2023-05-07T12:14:05;23.10;99.90
20815;DHT22;10568;48.176;16.316;2023-05-07T12:16:31;23.10;99.90
20815;DHT22;10568;48.176;16.316;2023-05-07T12:18:59;22.60;99.90
20815;DHT22;10568;48.176;16.316;2023-05-07T12:21:25;22.40;99.90
20815;DHT22;10568;48.176;16.316;2023-05-07T12:23:51;22.70;99.90
20815;DHT22;10568;48.176;16.316;2023-05-07T12:26:19;23.40;99.90
20815;DHT22;10568;48.176;16.316;2023-05-07T12:28:46;23.00;99.90
20815;DHT22;10568;48.176;16.316;2023-05-07T12:31:14;22.40;99.90
20815;DHT22;10568;48.176;16.316;2023-05-07T12:33:40;22.60;99.90
20815;DHT22;10568;48.176;16.316;2023-05-07T12:36:06;22.40;99.90
20815;DHT22;10568;48.176;16.316;2023-05-07T12:38:39;22.20;99.90
20815;DHT22;10568;48.176;16.316;2023-05-07T12:41:07;22.00;99.90
20815;DHT22;10568;48.176;16.316;2023-05-07T12:43:33;22.10;99.90
20815;DHT22;10568;48.176;16.316;2023-05-07T12:46:02;22.00;99.90
20815;DHT22;10568;48.176;16.316;2023-05-07T12:48:29;21.70;99.90
20815;DHT22;10568;48.176;16.316;2023-05-07T12:50:56;22.40;99.90
20815;DHT22;10568;48.176;16.316;2023-05-07T12:53:24;23.10;99.90
20815;DHT22;10568;48.176;16.316;2023-05-07T12:55:52;22.60;99.90
20815;DHT22;10568;48.176;16.316;2023-05-07T13:00:48;23.90;99.90
20815;DHT22;10568;48.176;16.316;2023-05-07T13:03:29;23.70;99.90
20815;DHT22;10568;48.176;16.316;2023-05-07T13:06:00;23.50;99.90
20815;DHT22;10568;48.176;16.316;2023-05-07T13:08:35;23.50;99.90
20815;DHT22;10568;48.176;16.316;2023-05-07T13:11:03;23.80;99.90
20815;DHT22;10568;48.176;16.316;2023-05-07T13:13:36;23.40;99.90
20815;DHT22;10568;48.176;16.316;2023-05-07T13:16:03;23.50;99.90
20815;DHT22;10568;48.176;16.316;2023-05-07T13:18:30;23.20;99.90
20815;DHT22;10568;48.176;16.316;2023-05-07T13:20:56;22.90;99.90
20815;DHT22;10568;48.176;16.316;2023-05-07T13:23:22;22.40;99.90
20815;DHT22;10568;48.176;16.316;2023-05-07T13:26:03;22.20;99.90
20815;DHT22;10568;48.176;16.316;2023-05-07T13:28:29;21.90;99.90
20815;DHT22;10568;48.176;16.316;2023-05-07T13:30:55;22.00;99.90
20815;DHT22;10568;48.176;16.316;2023-05-07T13:33:20;21.90;99.90
20815;DHT22;10568;48.176;16.316;2023-05-07T13:35:46;21.60;99.90
20815;DHT22;10568;48.176;16.316;2023-05-07T13:38:12;21.30;99.90
20815;DHT22;10568;48.176;16.316;2023-05-07T13:40:38;21.50;99.90
20815;DHT22;10568;48.176;16.316;2023-05-07T13:43:06;21.80;99.90
20815;DHT22;10568;48.176;16.316;2023-05-07T13:45:31;22.10;99.90
20815;DHT22;10568;48.176;16.316;2023-05-07T13:47:57;22.10;99.90
20815;DHT22;10568;48.176;16.316;2023-05-07T13:50:23;22.40;99.90
20815;DHT22;10568;48.176;16.316;2023-05-07T13:52:49;22.30;99.90
20815;DHT22;10568;48.176;16.316;2023-05-07T13:55:23;22.30;99.90
20815;DHT22;10568;48.176;16.316;2023-05-07T13:57:58;22.10;99.90
20815;DHT22;10568;48.176;16.316;2023-05-07T14:00:25;21.90;99.90
20815;DHT22;10568;48.176;16.316;2023-05-07T14:02:52;21.80;99.90
20815;DHT22;10568;48.176;16.316;2023-05-07T14:05:18;21.60;99.90
20815;DHT22;10568;48.176;16.316;2023-05-07T14:07:44;21.30;99.90
20815;DHT22;10568;48.176;16.316;2023-05-07T14:10:10;21.40;99.90
20815;DHT22;10568;48.176;16.316;2023-05-07T14:12:37;21.40;99.90
20815;DHT22;10568;48.176;16.316;2023-05-07T14:15:03;21.60;99.90
20815;DHT22;10568;48.176;16.316;2023-05-07T14:17:29;21.60;99.90
20815;DHT22;10568;48.176;16.316;2023-05-07T14:19:55;21.40;99.90
20815;DHT22;10568;48.176;16.316;2023-05-07T14:22:22;21.30;99.90
20815;DHT22;10568;48.176;16.316;2023-05-07T14:24:48;21.20;99.90
20815;DHT22;10568;48.176;16.316;2023-05-07T14:30:24;21.10;99.90
20815;DHT22;10568;48.176;16.316;2023-05-07T14:32:50;21.00;99.90
20815;DHT22;10568;48.176;16.316;2023-05-07T14:35:16;21.00;99.90
20815;DHT22;10568;48.176;16.316;2023-05-07T14:37:43;20.90;99.90
20815;DHT22;10568;48.176;16.316;2023-05-07T14:40:09;20.90;99.90
20815;DHT22;10568;48.176;16.316;2023-05-07T14:42:35;20.60;99.90
20815;DHT22;10568;48.176;16.316;2023-05-07T14:45:02;20.50;99.90
20815;DHT22;10568;48.176;16.316;2023-05-07T14:47:28;20.40;99.90
20815;DHT22;10568;48.176;16.316;2023-05-07T14:49:54;20.20;99.90
20815;DHT22;10568;48.176;16.316;2023-05-07T14:52:20;20.20;99.90
20815;DHT22;10568;48.176;16.316;2023-05-07T14:54:46;19.90;99.90
20815;DHT22;10568;48.176;16.316;2023-05-07T14:57:14;19.90;99.90
20815;DHT22;10568;48.176;16.316;2023-05-07T14:59:41;19.90;99.90
20815;DHT22;10568;48.176;16.316;2023-05-07T15:02:08;19.60;99.90
20815;DHT22;10568;48.176;16.316;2023-05-07T15:04:34;19.60;99.90
20815;DHT22;10568;48.176;16.316;2023-05-07T15:07:00;19.70;99.90
20815;DHT22;10568;48.176;16.316;2023-05-07T15:09:26;19.60;99.90
20815;DHT22;10568;48.176;16.316;2023-05-07T15:11:52;19.50;99.90
20815;DHT22;10568;48.176;16.316;2023-05-07T15:14:18;19.70;99.90
20815;DHT22;10568;48.176;16.316;2023-05-07T15:16:44;19.60;99.90
20815;DHT22;10568;48.176;16.316;2023-05-07T15:19:10;19.50;99.90
20815;DHT22;10568;48.176;16.316;2023-05-07T15:21:36;19.60;99.90
20815;DHT22;10568;48.176;16.316;2023-05-07T15:24:02;19.30;99.90
20815;DHT22;10568;48.176;16.316;2023-05-07T15:26:28;19.30;99.90
20815;DHT22;10568;48.176;16.316;2023-05-07T15:28:55;19.30;99.90
20815;DHT22;10568;48.176;16.316;2023-05-07T15:31:23;19.30;99.90
20815;DHT22;10568;48.176;16.316;2023-05-07T15:33:49;19.10;99.90
20815;DHT22;10568;48.176;16.316;2023-05-07T15:36:17;19.00;99.90
20815;DHT22;10568;48.176;16.316;2023-05-07T15:38:43;19.00;99.90
20815;DHT22;10568;48.176;16.316;2023-05-07T15:41:09;18.80;99.90
20815;DHT22;10568;48.176;16.316;2023-05-07T15:43:44;18.90;99.90